METAR Formatted Surface Weather Observation
Issued by NWS

Home | Current Version | Previous Version | Text Only | Print | Product List | Glossary On
Versions: 1 2 3 4 5 6 7 8 9 10 11 12 13 14 15 16 17 18 19
557
SAUS42 KRAH 100858
MTRNJM
METAR KNJM 100857Z AUTO 31012KT 10SM OVC070 01/M11 A2985 RMK AO2
SLP113 T00111106 51007 $



USA.gov is the U.S. government's official web portal to all federal, state and local government web resources and services.